createdAt,value
2019-03-23T00:02:16.860Z,72.00
2019-03-23T00:07:23.117Z,70.25
2019-03-23T00:12:32.428Z,66.62
2019-03-23T00:17:41.892Z,66.25
2019-03-23T00:22:46.916Z,67.14
2019-03-23T00:27:55.505Z,70.12
2019-03-23T00:33:04.883Z,70.00
2019-03-23T00:38:14.336Z,75.12
2019-03-23T00:43:25.246Z,76.22
2019-03-23T00:48:35.425Z,72.00
2019-03-23T00:53:39.960Z,68.00
2019-03-23T00:58:49.379Z,73.78
2019-03-23T01:03:53.686Z,71.00
2019-03-23T01:09:01.535Z,73.67
2019-03-23T01:14:13.552Z,68.25
2019-03-23T01:19:21.274Z,70.00
2019-03-23T01:24:30.919Z,70.12
2019-03-23T01:29:40.582Z,75.00
2019-03-23T01:34:50.051Z,75.67
2019-03-23T01:39:57.894Z,73.00
2019-03-23T01:45:08.994Z,73.00
2019-03-23T01:50:13.039Z,76.25
2019-03-23T01:55:23.960Z,76.78
2019-03-23T02:00:34.449Z,79.70
2019-03-23T02:05:41.446Z,81.00
2019-03-23T02:10:51.794Z,78.20
2019-03-23T02:16:01.279Z,71.11
2019-03-23T02:21:10.718Z,74.56
2019-03-23T02:26:17.606Z,74.44
2019-03-23T02:31:25.307Z,75.33
2019-03-23T02:36:34.784Z,78.78
2019-03-23T02:41:42.611Z,76.78
2019-03-23T02:46:52.292Z,73.33
2019-03-23T02:52:01.879Z,76.00
2019-03-23T02:57:12.390Z,75.44
2019-03-23T03:02:21.957Z,74.44
2019-03-23T03:07:41.813Z,71.75
2019-03-23T03:12:40.512Z,70.22
2019-03-23T03:17:49.591Z,68.12
2019-03-23T03:22:58.803Z,65.25
2019-03-23T03:28:07.207Z,64.33
2019-03-23T03:33:15.476Z,61.50
2019-03-23T03:38:23.772Z,64.22
2019-03-23T03:43:31.348Z,64.22
2019-03-23T03:48:39.643Z,65.56
2019-03-23T03:53:45.494Z,65.75
2019-03-23T03:58:52.196Z,64.67
2019-03-23T04:03:59.852Z,66.62
2019-03-23T04:09:09.010Z,66.37
2019-03-23T04:14:12.222Z,61.00
2019-03-23T04:19:19.640Z,63.00
2019-03-23T04:24:28.967Z,63.38
2019-03-23T04:29:38.168Z,67.50
2019-03-23T04:34:47.345Z,62.88
2019-03-23T04:39:56.588Z,63.75
2019-03-23T04:45:01.722Z,60.43
2019-03-23T04:50:08.514Z,57.13
2019-03-23T04:55:16.603Z,59.22
2019-03-23T05:00:21.692Z,57.00
2019-03-23T05:05:30.551Z,57.11
2019-03-23T05:10:38.238Z,60.78
2019-03-23T05:15:44.172Z,62.25
2019-03-23T05:20:49.231Z,57.71
2019-03-23T05:25:58.436Z,58.89
2019-03-23T05:31:04.194Z,53.00
2019-03-23T05:36:10.786Z,54.50
2019-03-23T05:41:20.518Z,53.33
2019-03-23T05:46:27.886Z,51.50
2019-03-23T05:51:35.938Z,51.11
2019-03-23T05:56:44.991Z,53.00
2019-03-23T06:01:52.291Z,51.13
2019-03-23T06:06:59.699Z,58.13
2019-03-23T06:12:04.315Z,56.00
2019-03-23T06:17:15.011Z,53.33
2019-03-23T06:22:24.743Z,53.00
2019-03-23T06:27:32.799Z,51.33
2019-03-23T06:32:36.911Z,45.67
2019-03-23T06:37:42.582Z,51.88
2019-03-23T06:42:47.519Z,49.50
2019-03-23T06:47:55.775Z,46.50
2019-03-23T06:53:00.458Z,41.50
2019-03-23T06:58:08.806Z,47.50
2019-03-23T07:03:18.112Z,58.87
2019-03-23T07:08:31.801Z,42.50
2019-03-23T07:13:37.246Z,50.00
2019-03-23T07:18:45.169Z,53.87
2019-03-23T07:23:51.163Z,47.25
2019-03-23T07:28:56.231Z,53.50
2019-03-23T07:34:00.613Z,52.00
2019-03-23T07:39:07.684Z,65.50
2019-03-23T07:44:12.774Z,56.00
2019-03-23T07:49:17.139Z,52.75
2019-03-23T07:54:25.679Z,47.75
2019-03-23T07:59:33.503Z,60.63
2019-03-23T08:04:42.011Z,57.00
2019-03-23T08:09:48.229Z,56.50
2019-03-23T08:14:54.482Z,53.50
2019-03-23T08:20:00.468Z,57.38
2019-03-23T08:25:06.686Z,58.50
2019-03-23T08:30:12.783Z,53.25
2019-03-23T08:35:17.712Z,52.00
2019-03-23T08:40:26.215Z,52.62
2019-03-23T08:45:35.443Z,54.63
2019-03-23T08:50:40.494Z,54.29
2019-03-23T08:55:44.863Z,55.00
2019-03-23T09:00:53.762Z,50.38
2019-03-23T09:06:00.051Z,56.00
2019-03-23T09:11:06.179Z,54.63
2019-03-23T09:16:10.591Z,57.00
2019-03-23T09:21:17.610Z,57.88
2019-03-23T09:26:25.553Z,57.25
2019-03-23T09:31:31.619Z,48.87
2019-03-23T09:36:37.803Z,54.50
2019-03-23T09:41:44.100Z,49.63
2019-03-23T09:46:47.529Z,53.33
2019-03-23T09:51:57.261Z,61.00
2019-03-23T09:57:05.721Z,45.75
2019-03-23T10:02:09.502Z,53.75
2019-03-23T10:07:14.278Z,50.00
2019-03-23T10:12:24.343Z,48.82
2019-03-23T10:17:30.744Z,53.00
2019-03-23T10:22:33.919Z,52.67
2019-03-23T10:27:37.848Z,48.33
2019-03-23T10:32:41.851Z,45.33
2019-03-23T10:37:50.880Z,48.00
2019-03-23T10:42:55.443Z,52.00
2019-03-23T10:48:00.136Z,49.50
2019-03-23T10:53:04.638Z,54.50
2019-03-23T10:58:09.278Z,55.75
2019-03-23T11:03:13.959Z,48.50
2019-03-23T11:08:21.547Z,56.00
2019-03-23T11:13:27.731Z,50.00
2019-03-23T11:18:31.443Z,46.50
2019-03-23T11:23:39.807Z,50.88
2019-03-23T11:28:47.920Z,50.50
2019-03-23T11:33:51.690Z,43.00
2019-03-23T11:38:55.055Z,46.67
2019-03-23T11:44:02.101Z,44.13
2019-03-23T11:49:08.111Z,53.87
2019-03-23T11:54:12.087Z,50.00
2019-03-23T11:59:17.846Z,44.38
2019-03-23T12:04:25.276Z,45.88
2019-03-23T12:09:33.885Z,41.63
2019-03-23T12:14:41.685Z,33.00
2019-03-23T12:19:49.531Z,38.13
2019-03-23T12:24:55.604Z,37.63
2019-03-23T12:30:07.508Z,33.63
2019-03-23T12:35:18.097Z,34.64
2019-03-23T12:40:24.922Z,30.50
2019-03-23T12:45:31.939Z,33.38
2019-03-23T12:50:38.243Z,31.00
2019-03-23T12:55:44.471Z,35.50
2019-03-23T13:00:52.344Z,37.88
2019-03-23T13:05:58.555Z,28.25
2019-03-23T13:11:02.140Z,26.75
2019-03-23T13:16:10.826Z,32.00
2019-03-23T13:21:18.446Z,29.12
2019-03-23T13:26:24.561Z,30.37
2019-03-23T13:31:30.691Z,32.75
2019-03-23T13:36:34.302Z,32.33
2019-03-23T13:41:47.308Z,32.38
2019-03-23T13:46:53.406Z,31.75
2019-03-23T13:51:56.970Z,33.25
2019-03-23T13:57:00.906Z,28.50
2019-03-23T14:02:05.510Z,29.50
2019-03-23T14:07:10.461Z,24.25
2019-03-23T14:12:18.337Z,28.50
2019-03-23T14:17:23.442Z,31.00
2019-03-23T14:22:27.027Z,21.25
2019-03-23T14:27:33.017Z,29.12
2019-03-23T14:32:39.734Z,25.12
2019-03-23T14:37:44.799Z,27.25
2019-03-23T14:42:50.696Z,23.00
2019-03-23T14:47:54.232Z,23.00
2019-03-23T14:53:02.025Z,22.87
2019-03-23T14:58:05.664Z,29.00
2019-03-23T15:03:14.307Z,24.44
2019-03-23T15:08:17.791Z,22.50
2019-03-23T15:13:22.770Z,19.57
2019-03-23T15:18:28.756Z,24.87
2019-03-23T15:23:35.329Z,24.63
2019-03-23T15:28:41.471Z,21.29
2019-03-23T15:33:48.196Z,22.71
2019-03-23T15:38:52.159Z,18.00
2019-03-23T15:43:57.650Z,20.88
2019-03-23T15:49:03.694Z,20.29
2019-03-23T15:54:09.422Z,19.00
2019-03-23T15:59:15.335Z,22.00
2019-03-23T16:04:22.033Z,24.25
2019-03-23T16:09:25.435Z,22.75
2019-03-23T16:14:30.522Z,19.86
2019-03-23T16:19:36.201Z,18.57
2019-03-23T16:24:43.067Z,21.29
2019-03-23T16:29:47.439Z,19.29
2019-03-23T16:34:51.838Z,14.67
2019-03-23T16:39:58.889Z,28.25
2019-03-23T16:45:08.619Z,22.86
2019-03-23T16:50:12.540Z,21.00
2019-03-23T16:55:17.720Z,23.86
2019-03-23T17:00:23.463Z,25.00
2019-03-23T17:05:28.770Z,23.86
2019-03-23T17:10:36.492Z,25.12
2019-03-23T17:15:42.736Z,22.00
2019-03-23T17:20:46.246Z,22.00
2019-03-23T17:25:51.071Z,20.00
2019-03-23T17:30:59.853Z,29.00
2019-03-23T17:36:04.289Z,28.00
2019-03-23T17:41:10.408Z,26.25
2019-03-23T17:46:15.126Z,36.00
2019-03-23T17:51:19.174Z,32.50
2019-03-23T17:56:23.913Z,40.00
2019-03-23T18:01:32.731Z,43.13
2019-03-23T18:06:37.301Z,46.75
2019-03-23T18:11:42.008Z,63.00
2019-03-23T18:16:48.435Z,51.75
2019-03-23T18:21:55.703Z,50.88
2019-03-23T18:26:59.512Z,52.50
2019-03-23T18:32:09.415Z,54.63
2019-03-23T18:37:13.265Z,63.00
2019-03-23T18:42:21.711Z,58.38
2019-03-23T18:47:29.965Z,62.13
2019-03-23T18:52:36.475Z,57.75
2019-03-23T18:57:43.272Z,60.63
2019-03-23T19:02:51.482Z,61.50
2019-03-23T19:07:55.563Z,53.75
2019-03-23T19:13:00.414Z,60.75
2019-03-23T19:18:08.637Z,57.75
2019-03-23T19:23:15.165Z,57.25
2019-03-23T19:28:21.699Z,55.00
2019-03-23T19:33:29.887Z,62.00
2019-03-23T19:38:33.851Z,57.00
2019-03-23T19:43:48.391Z,57.00
2019-03-23T19:48:44.096Z,53.33
2019-03-23T19:53:48.670Z,52.00
2019-03-23T19:58:52.643Z,54.00
2019-03-23T20:03:57.517Z,55.75
2019-03-23T20:09:01.561Z,57.25
2019-03-23T20:14:08.166Z,52.75
2019-03-23T20:19:13.114Z,54.25
2019-03-23T20:24:17.794Z,57.00
2019-03-23T20:29:26.784Z,60.38
2019-03-23T20:34:33.370Z,60.38
2019-03-23T20:39:40.064Z,59.13
2019-03-23T20:44:46.814Z,62.25
2019-03-23T20:49:50.228Z,60.50
2019-03-23T20:55:00.412Z,65.44
2019-03-23T21:00:11.132Z,62.62
2019-03-23T21:05:19.171Z,65.87
2019-03-23T21:10:27.665Z,67.50
2019-03-23T21:15:34.411Z,70.62
2019-03-23T21:20:40.310Z,67.71
2019-03-23T21:25:47.757Z,73.22
2019-03-23T21:30:51.976Z,72.00
2019-03-23T21:35:59.069Z,76.00
2019-03-23T21:41:05.471Z,71.87
2019-03-23T21:46:12.743Z,73.78
2019-03-23T21:51:20.205Z,74.44
2019-03-23T21:56:27.372Z,74.44
2019-03-23T22:01:34.869Z,74.78
2019-03-23T22:06:43.530Z,75.78
2019-03-23T22:11:52.373Z,77.37
2019-03-23T22:16:57.344Z,78.00
2019-03-23T22:22:06.610Z,77.80
2019-03-23T22:27:14.797Z,85.11
2019-03-23T22:32:22.265Z,89.44
2019-03-23T22:37:30.518Z,90.22
2019-03-23T22:42:41.186Z,86.80
2019-03-23T22:47:51.848Z,77.00
2019-03-23T22:53:00.767Z,74.87
2019-03-23T22:58:10.570Z,73.00
2019-03-23T23:03:17.823Z,75.00
2019-03-23T23:08:25.470Z,79.11
2019-03-23T23:13:35.880Z,83.90
2019-03-23T23:18:45.639Z,77.67
2019-03-23T23:23:52.878Z,74.43
2019-03-23T23:28:55.966Z,76.00
2019-03-23T23:34:04.990Z,67.87
2019-03-23T23:39:11.229Z,73.12
2019-03-23T23:44:19.206Z,77.00
2019-03-23T23:49:28.184Z,74.25
2019-03-23T23:54:36.281Z,76.33
2019-03-23T23:59:45.164Z,75.89
